sensor_id;sensor_type;location;lat;lon;timestamp;pressure;altitude;pressure_sealevel;temperature;humidity
27685;BME280;46113;50.130;8.526;2023-11-21T05:17:01;98539.56;;;5.70;86.16
27685;BME280;46113;50.130;8.526;2023-11-21T05:20:06;98542.81;;;5.76;86.22
27685;BME280;46113;50.130;8.526;2023-11-21T05:30:19;98557.00;;;5.89;85.13
27685;BME280;46113;50.130;8.526;2023-11-21T05:32:53;98558.25;;;5.82;85.26
27685;BME280;46113;50.130;8.526;2023-11-21T05:35:20;98567.19;;;5.78;85.66
27685;BME280;46113;50.130;8.526;2023-11-21T05:38:13;98561.19;;;5.76;86.07
27685;BME280;46113;50.130;8.526;2023-11-21T05:41:19;98574.13;;;5.79;85.88
27685;BME280;46113;50.130;8.526;2023-11-21T05:43:54;98575.38;;;5.71;86.03
27685;BME280;46113;50.130;8.526;2023-11-21T05:46:24;98577.31;;;5.68;85.70
27685;BME280;46113;50.130;8.526;2023-11-21T05:48:51;98576.25;;;5.72;86.07
27685;BME280;46113;50.130;8.526;2023-11-21T05:51:18;98576.84;;;5.77;85.73
27685;BME280;46113;50.130;8.526;2023-11-21T05:53:45;98574.13;;;5.79;85.41
27685;BME280;46113;50.130;8.526;2023-11-21T05:56:13;98583.09;;;5.75;85.53
27685;BME280;46113;50.130;8.526;2023-11-21T05:58:42;98583.94;;;5.75;85.83
27685;BME280;46113;50.130;8.526;2023-11-21T06:01:16;98581.00;;;5.81;85.78
27685;BME280;46113;50.130;8.526;2023-11-21T06:03:43;98585.63;;;5.76;85.68
27685;BME280;46113;50.130;8.526;2023-11-21T06:06:10;98585.09;;;5.69;85.86
27685;BME280;46113;50.130;8.526;2023-11-21T06:08:36;98585.34;;;5.82;86.00
27685;BME280;46113;50.130;8.526;2023-11-21T06:11:03;98580.56;;;5.91;85.13
27685;BME280;46113;50.130;8.526;2023-11-21T06:13:30;98587.69;;;5.89;85.19
27685;BME280;46113;50.130;8.526;2023-11-21T06:15:57;98592.13;;;5.86;85.16
27685;BME280;46113;50.130;8.526;2023-11-21T06:18:24;98601.63;;;5.89;84.69
27685;BME280;46113;50.130;8.526;2023-11-21T06:20:50;98615.59;;;5.72;85.55
27685;BME280;46113;50.130;8.526;2023-11-21T06:35:54;98628.88;;;5.86;84.92
27685;BME280;46113;50.130;8.526;2023-11-21T06:38:21;98629.25;;;5.79;84.98
27685;BME280;46113;50.130;8.526;2023-11-21T06:40:48;98639.56;;;5.83;84.41
27685;BME280;46113;50.130;8.526;2023-11-21T06:43:15;98651.84;;;5.64;85.13
27685;BME280;46113;50.130;8.526;2023-11-21T06:45:41;98651.06;;;5.81;84.69
27685;BME280;46113;50.130;8.526;2023-11-21T06:48:08;98649.50;;;5.77;83.65
27685;BME280;46113;50.130;8.526;2023-11-21T06:50:35;98656.88;;;5.49;84.42
27685;BME280;46113;50.130;8.526;2023-11-21T06:53:01;98662.91;;;5.70;84.97
27685;BME280;46113;50.130;8.526;2023-11-21T06:55:30;98671.63;;;5.71;84.30
27685;BME280;46113;50.130;8.526;2023-11-21T06:57:57;98674.31;;;5.50;83.97
27685;BME280;46113;50.130;8.526;2023-11-21T07:00:24;98674.19;;;5.53;84.45
27685;BME280;46113;50.130;8.526;2023-11-21T07:02:51;98676.97;;;5.29;84.08
27685;BME280;46113;50.130;8.526;2023-11-21T07:05:18;98682.16;;;5.31;83.92
27685;BME280;46113;50.130;8.526;2023-11-21T07:07:48;98690.22;;;5.47;83.44
27685;BME280;46113;50.130;8.526;2023-11-21T07:10:16;98686.84;;;5.24;83.08
27685;BME280;46113;50.130;8.526;2023-11-21T07:12:43;98680.13;;;5.38;82.28
27685;BME280;46113;50.130;8.526;2023-11-21T07:15:10;98695.78;;;5.39;82.62
27685;BME280;46113;50.130;8.526;2023-11-21T07:17:37;98696.97;;;5.32;82.88
27685;BME280;46113;50.130;8.526;2023-11-21T07:20:07;98703.56;;;5.41;82.63
27685;BME280;46113;50.130;8.526;2023-11-21T07:22:34;98705.25;;;5.63;82.40
27685;BME280;46113;50.130;8.526;2023-11-21T07:25:01;98710.94;;;5.53;82.14
27685;BME280;46113;50.130;8.526;2023-11-21T07:27:28;98717.16;;;5.51;81.80
27685;BME280;46113;50.130;8.526;2023-11-21T07:29:55;98718.41;;;5.42;81.29
27685;BME280;46113;50.130;8.526;2023-11-21T07:32:21;98717.13;;;5.31;80.76
27685;BME280;46113;50.130;8.526;2023-11-21T07:34:48;98734.50;;;5.34;81.80
27685;BME280;46113;50.130;8.526;2023-11-21T07:37:15;98724.94;;;5.12;82.76
27685;BME280;46113;50.130;8.526;2023-11-21T07:39:41;98724.13;;;5.31;81.47
27685;BME280;46113;50.130;8.526;2023-11-21T07:42:09;98725.31;;;5.44;80.83
27685;BME280;46113;50.130;8.526;2023-11-21T07:44:37;98736.03;;;5.59;80.19
27685;BME280;46113;50.130;8.526;2023-11-21T07:47:04;98736.88;;;5.79;80.17
27685;BME280;46113;50.130;8.526;2023-11-21T07:49:31;98732.91;;;5.51;80.22
27685;BME280;46113;50.130;8.526;2023-11-21T07:51:58;98734.81;;;5.85;80.32
27685;BME280;46113;50.130;8.526;2023-11-21T07:54:24;98736.41;;;5.70;80.21
27685;BME280;46113;50.130;8.526;2023-11-21T07:56:51;98737.31;;;5.89;80.44
27685;BME280;46113;50.130;8.526;2023-11-21T07:59:17;98739.00;;;6.09;80.21
27685;BME280;46113;50.130;8.526;2023-11-21T08:01:44;98744.44;;;6.23;79.87
27685;BME280;46113;50.130;8.526;2023-11-21T08:04:12;98746.13;;;6.24;79.92
27685;BME280;46113;50.130;8.526;2023-11-21T08:06:39;98740.44;;;6.34;80.23
27685;BME280;46113;50.130;8.526;2023-11-21T08:09:08;98745.69;;;6.34;80.41
27685;BME280;46113;50.130;8.526;2023-11-21T08:11:35;98740.69;;;6.47;80.64
27685;BME280;46113;50.130;8.526;2023-11-21T08:14:01;98736.78;;;6.56;80.48
27685;BME280;46113;50.130;8.526;2023-11-21T08:16:28;98740.03;;;6.61;80.55
27685;BME280;46113;50.130;8.526;2023-11-21T08:18:55;98740.53;;;6.68;80.43
27685;BME280;46113;50.130;8.526;2023-11-21T08:21:22;98741.34;;;6.70;80.77
27685;BME280;46113;50.130;8.526;2023-11-21T08:23:55;98743.31;;;6.47;80.03
27685;BME280;46113;50.130;8.526;2023-11-21T08:26:22;98747.13;;;6.41;78.60
27685;BME280;46113;50.130;8.526;2023-11-21T08:28:49;98750.84;;;6.72;79.03
27685;BME280;46113;50.130;8.526;2023-11-21T08:31:24;98751.94;;;6.68;78.55
27685;BME280;46113;50.130;8.526;2023-11-21T08:33:51;98751.78;;;6.71;78.21
27685;BME280;46113;50.130;8.526;2023-11-21T08:36:22;98751.63;;;6.57;79.01
27685;BME280;46113;50.130;8.526;2023-11-21T08:38:52;98754.41;;;6.71;78.39
27685;BME280;46113;50.130;8.526;2023-11-21T08:41:18;98756.56;;;6.81;78.03
27685;BME280;46113;50.130;8.526;2023-11-21T08:43:49;98763.44;;;6.65;76.84
27685;BME280;46113;50.130;8.526;2023-11-21T08:46:16;98766.69;;;6.53;77.89
27685;BME280;46113;50.130;8.526;2023-11-21T08:48:44;98773.66;;;6.72;77.49
27685;BME280;46113;50.130;8.526;2023-11-21T08:51:12;98773.19;;;6.81;77.13
27685;BME280;46113;50.130;8.526;2023-11-21T08:53:40;98776.66;;;6.64;76.95
27685;BME280;46113;50.130;8.526;2023-11-21T08:56:07;98781.38;;;6.92;77.30
27685;BME280;46113;50.130;8.526;2023-11-21T08:58:35;98787.47;;;6.75;78.06
27685;BME280;46113;50.130;8.526;2023-11-21T09:01:04;98794.94;;;7.02;77.58
27685;BME280;46113;50.130;8.526;2023-11-21T09:03:31;98797.72;;;6.82;76.12
27685;BME280;46113;50.130;8.526;2023-11-21T09:06:00;98803.09;;;7.15;75.61
27685;BME280;46113;50.130;8.526;2023-11-21T09:08:27;98806.44;;;6.82;76.37
27685;BME280;46113;50.130;8.526;2023-11-21T09:10:55;98814.28;;;7.01;76.54
27685;BME280;46113;50.130;8.526;2023-11-21T09:13:22;98812.50;;;6.84;76.71
27685;BME280;46113;50.130;8.526;2023-11-21T09:15:52;98818.19;;;6.92;75.55
27685;BME280;46113;50.130;8.526;2023-11-21T09:18:18;98817.69;;;6.30;76.98
27685;BME280;46113;50.130;8.526;2023-11-21T09:20:45;98818.63;;;6.48;77.15
27685;BME280;46113;50.130;8.526;2023-11-21T09:23:12;98816.06;;;6.46;77.23
27685;BME280;46113;50.130;8.526;2023-11-21T09:25:39;98819.59;;;6.45;76.96
27685;BME280;46113;50.130;8.526;2023-11-21T09:28:05;98833.69;;;6.25;78.75
27685;BME280;46113;50.130;8.526;2023-11-21T09:30:35;98837.88;;;6.10;79.34
27685;BME280;46113;50.130;8.526;2023-11-21T09:33:04;98837.16;;;6.06;79.20
27685;BME280;46113;50.130;8.526;2023-11-21T09:35:37;98835.03;;;6.34;78.64
27685;BME280;46113;50.130;8.526;2023-11-21T09:38:04;98840.16;;;6.18;78.49
27685;BME280;46113;50.130;8.526;2023-11-21T09:40:37;98844.56;;;6.17;79.62
27685;BME280;46113;50.130;8.526;2023-11-21T09:43:16;98852.28;;;6.39;78.67
27685;BME280;46113;50.130;8.526;2023-11-21T09:45:48;98848.38;;;6.48;77.73
27685;BME280;46113;50.130;8.526;2023-11-21T09:48:20;98861.44;;;6.87;76.65
27685;BME280;46113;50.130;8.526;2023-11-21T09:50:47;98858.28;;;6.98;75.06
27685;BME280;46113;50.130;8.526;2023-11-21T09:53:18;98866.84;;;6.84;74.82
27685;BME280;46113;50.130;8.526;2023-11-21T09:55:49;98857.75;;;6.91;75.08
27685;BME280;46113;50.130;8.526;2023-11-21T09:58:18;98856.84;;;6.73;73.82
27685;BME280;46113;50.130;8.526;2023-11-21T10:00:47;98854.22;;;7.10;73.84
27685;BME280;46113;50.130;8.526;2023-11-21T10:03:14;98859.59;;;6.89;73.69
27685;BME280;46113;50.130;8.526;2023-11-21T10:05:43;98858.44;;;6.95;73.70
27685;BME280;46113;50.130;8.526;2023-11-21T10:08:12;98864.97;;;6.86;71.01
27685;BME280;46113;50.130;8.526;2023-11-21T10:10:46;98855.25;;;7.25;71.03
27685;BME280;46113;50.130;8.526;2023-11-21T10:13:17;98854.69;;;7.18;70.14
27685;BME280;46113;50.130;8.526;2023-11-21T10:15:50;98859.09;;;7.17;71.26
27685;BME280;46113;50.130;8.526;2023-11-21T10:18:17;98857.44;;;7.68;70.70
27685;BME280;46113;50.130;8.526;2023-11-21T10:20:45;98859.75;;;7.74;70.87
27685;BME280;46113;50.130;8.526;2023-11-21T10:23:20;98860.63;;;7.57;71.26
27685;BME280;46113;50.130;8.526;2023-11-21T10:25:50;98859.81;;;7.90;70.29
27685;BME280;46113;50.130;8.526;2023-11-21T10:28:18;98868.88;;;7.67;68.31
27685;BME280;46113;50.130;8.526;2023-11-21T10:30:45;98866.44;;;7.64;70.05
27685;BME280;46113;50.130;8.526;2023-11-21T10:33:12;98869.78;;;7.50;69.44
27685;BME280;46113;50.130;8.526;2023-11-21T10:35:46;98877.53;;;7.35;70.34
27685;BME280;46113;50.130;8.526;2023-11-21T10:38:14;98873.09;;;7.36;69.60
27685;BME280;46113;50.130;8.526;2023-11-21T10:40:41;98875.53;;;7.03;72.07
27685;BME280;46113;50.130;8.526;2023-11-21T10:43:09;98875.56;;;7.74;70.44
27685;BME280;46113;50.130;8.526;2023-11-21T10:45:37;98881.06;;;7.69;69.83
27685;BME280;46113;50.130;8.526;2023-11-21T10:48:07;98880.16;;;7.87;69.31
27685;BME280;46113;50.130;8.526;2023-11-21T10:50:35;98869.41;;;7.91;68.92
27685;BME280;46113;50.130;8.526;2023-11-21T10:53:05;98880.34;;;7.83;69.23
27685;BME280;46113;50.130;8.526;2023-11-21T10:55:33;98873.38;;;7.82;69.30
27685;BME280;46113;50.130;8.526;2023-11-21T10:58:03;98881.56;;;7.76;68.40
27685;BME280;46113;50.130;8.526;2023-11-21T11:00:32;98879.44;;;8.01;68.17
27685;BME280;46113;50.130;8.526;2023-11-21T11:03:00;98879.94;;;7.91;68.40
27685;BME280;46113;50.130;8.526;2023-11-21T11:05:29;98883.78;;;8.02;69.56
27685;BME280;46113;50.130;8.526;2023-11-21T11:10:27;98884.72;;;8.01;68.28
27685;BME280;46113;50.130;8.526;2023-11-21T11:12:57;98882.91;;;8.01;66.70
27685;BME280;46113;50.130;8.526;2023-11-21T11:15:25;98887.03;;;8.57;67.41
27685;BME280;46113;50.130;8.526;2023-11-21T11:17:53;98885.34;;;8.38;66.29
27685;BME280;46113;50.130;8.526;2023-11-21T11:20:34;98882.47;;;8.43;67.17
27685;BME280;46113;50.130;8.526;2023-11-21T11:26:37;98885.44;;;8.36;64.53
27685;BME280;46113;50.130;8.526;2023-11-21T11:37:57;98879.84;;;7.93;66.20
27685;BME280;46113;50.130;8.526;2023-11-21T11:40:38;98879.22;;;8.21;66.74
27685;BME280;46113;50.130;8.526;2023-11-21T11:43:06;98882.97;;;8.17;65.51
27685;BME280;46113;50.130;8.526;2023-11-21T11:45:34;98873.44;;;8.15;65.52
27685;BME280;46113;50.130;8.526;2023-11-21T11:48:02;98885.72;;;7.98;64.74
27685;BME280;46113;50.130;8.526;2023-11-21T11:50:30;98886.00;;;8.09;65.81
27685;BME280;46113;50.130;8.526;2023-11-21T11:53:12;98887.38;;;8.17;66.09
27685;BME280;46113;50.130;8.526;2023-11-21T11:55:40;98886.63;;;7.97;66.61
27685;BME280;46113;50.130;8.526;2023-11-21T11:58:08;98891.91;;;7.63;65.64
27685;BME280;46113;50.130;8.526;2023-11-21T12:00:36;98891.31;;;7.92;67.23
27685;BME280;46113;50.130;8.526;2023-11-21T12:03:06;98897.22;;;7.79;66.46
27685;BME280;46113;50.130;8.526;2023-11-21T12:05:35;98899.03;;;7.61;68.48
27685;BME280;46113;50.130;8.526;2023-11-21T12:08:06;98898.09;;;7.80;68.33
27685;BME280;46113;50.130;8.526;2023-11-21T12:10:42;98907.94;;;7.58;68.29
27685;BME280;46113;50.130;8.526;2023-11-21T12:13:15;98904.13;;;7.64;68.98
27685;BME280;46113;50.130;8.526;2023-11-21T12:15:42;98910.25;;;7.65;68.09
27685;BME280;46113;50.130;8.526;2023-11-21T12:18:10;98907.75;;;7.62;67.24
27685;BME280;46113;50.130;8.526;2023-11-21T12:20:37;98911.72;;;7.17;66.91
27685;BME280;46113;50.130;8.526;2023-11-21T12:23:12;98922.78;;;7.24;67.56
27685;BME280;46113;50.130;8.526;2023-11-21T12:25:43;98915.06;;;7.39;68.20
27685;BME280;46113;50.130;8.526;2023-11-21T12:28:10;98910.50;;;7.42;67.87
27685;BME280;46113;50.130;8.526;2023-11-21T12:30:39;98915.13;;;7.37;66.04
27685;BME280;46113;50.130;8.526;2023-11-21T12:33:07;98918.47;;;7.41;67.30
27685;BME280;46113;50.130;8.526;2023-11-21T12:35:38;98924.56;;;7.77;66.32
27685;BME280;46113;50.130;8.526;2023-11-21T12:38:08;98925.66;;;7.73;65.29
27685;BME280;46113;50.130;8.526;2023-11-21T12:40:36;98928.69;;;7.65;66.09
27685;BME280;46113;50.130;8.526;2023-11-21T12:43:03;98937.56;;;7.27;67.98
27685;BME280;46113;50.130;8.526;2023-11-21T12:45:36;98936.88;;;7.41;66.22
27685;BME280;46113;50.130;8.526;2023-11-21T12:48:05;98932.16;;;7.30;66.67
27685;BME280;46113;50.130;8.526;2023-11-21T12:50:38;98938.25;;;7.30;66.57
27685;BME280;46113;50.130;8.526;2023-11-21T12:53:10;98939.13;;;7.31;67.66
27685;BME280;46113;50.130;8.526;2023-11-21T12:55:44;98944.53;;;7.28;67.25
27685;BME280;46113;50.130;8.526;2023-11-21T12:58:17;98947.44;;;6.85;67.05
27685;BME280;46113;50.130;8.526;2023-11-21T13:00:48;98944.34;;;7.13;66.42
27685;BME280;46113;50.130;8.526;2023-11-21T13:03:18;98949.56;;;6.96;65.62
27685;BME280;46113;50.130;8.526;2023-11-21T13:09:25;98947.66;;;6.80;68.06
27685;BME280;46113;50.130;8.526;2023-11-21T13:12:12;98945.22;;;7.14;67.06
27685;BME280;46113;50.130;8.526;2023-11-21T13:14:46;98945.59;;;7.24;66.82
27685;BME280;46113;50.130;8.526;2023-11-21T13:17:14;98955.44;;;7.20;65.87
27685;BME280;46113;50.130;8.526;2023-11-21T13:19:53;98960.94;;;6.96;66.18
27685;BME280;46113;50.130;8.526;2023-11-21T13:22:28;98963.78;;;7.11;66.31
27685;BME280;46113;50.130;8.526;2023-11-21T13:25:01;98965.78;;;7.05;66.66
27685;BME280;46113;50.130;8.526;2023-11-21T13:27:44;98964.50;;;7.14;66.33
27685;BME280;46113;50.130;8.526;2023-11-21T13:33:23;98963.69;;;7.31;65.93
27685;BME280;46113;50.130;8.526;2023-11-21T13:36:01;98976.16;;;7.09;67.04
27685;BME280;46113;50.130;8.526;2023-11-21T13:38:28;98973.16;;;7.16;64.38
27685;BME280;46113;50.130;8.526;2023-11-21T13:40:59;98974.84;;;7.17;66.13
27685;BME280;46113;50.130;8.526;2023-11-21T13:43:26;98968.28;;;7.26;65.20
27685;BME280;46113;50.130;8.526;2023-11-21T13:45:55;98976.72;;;7.15;66.88
27685;BME280;46113;50.130;8.526;2023-11-21T13:48:28;98979.06;;;7.02;66.49
27685;BME280;46113;50.130;8.526;2023-11-21T13:51:00;98980.56;;;7.08;66.39
27685;BME280;46113;50.130;8.526;2023-11-21T13:53:37;98983.69;;;7.16;65.82
27685;BME280;46113;50.130;8.526;2023-11-21T13:56:05;98988.00;;;6.98;66.10
27685;BME280;46113;50.130;8.526;2023-11-21T13:58:32;98991.56;;;6.78;65.02
27685;BME280;46113;50.130;8.526;2023-11-21T14:01:26;98991.63;;;6.57;66.74
27685;BME280;46113;50.130;8.526;2023-11-21T14:03:56;99008.19;;;6.78;66.33
27685;BME280;46113;50.130;8.526;2023-11-21T14:06:29;99005.00;;;6.52;67.63
27685;BME280;46113;50.130;8.526;2023-11-21T14:09:02;99011.81;;;6.76;68.08
27685;BME280;46113;50.130;8.526;2023-11-21T14:11:34;99011.53;;;6.63;68.59
27685;BME280;46113;50.130;8.526;2023-11-21T14:14:11;99013.31;;;6.82;68.18
27685;BME280;46113;50.130;8.526;2023-11-21T14:16:38;99008.34;;;6.95;67.67
27685;BME280;46113;50.130;8.526;2023-11-21T14:19:05;99010.97;;;6.95;69.46
27685;BME280;46113;50.130;8.526;2023-11-21T14:33:44;99014.59;;;6.92;73.15
27685;BME280;46113;50.130;8.526;2023-11-21T14:36:13;99015.72;;;6.86;73.23
27685;BME280;46113;50.130;8.526;2023-11-21T14:46:47;99027.47;;;6.79;74.71
27685;BME280;46113;50.130;8.526;2023-11-21T14:50:41;99032.34;;;6.68;75.24
27685;BME280;46113;50.130;8.526;2023-11-21T14:58:57;99029.66;;;6.69;75.39
27685;BME280;46113;50.130;8.526;2023-11-21T15:01:32;99035.91;;;6.67;75.45
27685;BME280;46113;50.130;8.526;2023-11-21T15:04:21;99040.66;;;6.58;75.80
27685;BME280;46113;50.130;8.526;2023-11-21T15:07:16;99045.03;;;6.38;76.76
27685;BME280;46113;50.130;8.526;2023-11-21T15:09:44;99039.38;;;6.27;76.76
27685;BME280;46113;50.130;8.526;2023-11-21T15:12:12;99048.13;;;6.28;77.38
27685;BME280;46113;50.130;8.526;2023-11-21T15:14:44;99052.44;;;6.29;77.15
27685;BME280;46113;50.130;8.526;2023-11-21T15:17:14;99057.19;;;6.20;77.08
27685;BME280;46113;50.130;8.526;2023-11-21T15:19:58;99055.06;;;6.29;77.40
27685;BME280;46113;50.130;8.526;2023-11-21T15:22:27;99056.13;;;6.24;77.31
27685;BME280;46113;50.130;8.526;2023-11-21T15:24:55;99062.25;;;6.25;77.40
27685;BME280;46113;50.130;8.526;2023-11-21T15:27:25;99055.72;;;6.13;77.83
27685;BME280;46113;50.130;8.526;2023-11-21T15:29:55;99058.16;;;5.97;78.22
27685;BME280;46113;50.130;8.526;2023-11-21T15:32:24;99058.34;;;6.13;77.99
27685;BME280;46113;50.130;8.526;2023-11-21T15:34:51;99068.69;;;6.18;77.51
27685;BME280;46113;50.130;8.526;2023-11-21T15:37:20;99066.25;;;6.13;77.94
27685;BME280;46113;50.130;8.526;2023-11-21T15:39:52;99061.47;;;6.23;78.11
27685;BME280;46113;50.130;8.526;2023-11-21T15:42:19;99061.03;;;6.32;77.56
27685;BME280;46113;50.130;8.526;2023-11-21T15:44:47;99067.56;;;6.23;77.33
27685;BME280;46113;50.130;8.526;2023-11-21T15:47:14;99069.41;;;6.21;77.94
27685;BME280;46113;50.130;8.526;2023-11-21T15:49:42;99067.53;;;6.03;78.54
27685;BME280;46113;50.130;8.526;2023-11-21T15:52:10;99075.16;;;6.09;77.92
27685;BME280;46113;50.130;8.526;2023-11-21T15:54:40;99076.03;;;6.09;78.23
27685;BME280;46113;50.130;8.526;2023-11-21T15:57:07;99078.38;;;6.16;77.81
27685;BME280;46113;50.130;8.526;2023-11-21T15:59:40;99077.63;;;6.14;78.16
27685;BME280;46113;50.130;8.526;2023-11-21T16:02:12;99079.53;;;6.10;78.03
27685;BME280;46113;50.130;8.526;2023-11-21T16:04:45;99085.66;;;6.09;78.17
27685;BME280;46113;50.130;8.526;2023-11-21T16:07:13;99087.41;;;6.10;78.69
27685;BME280;46113;50.130;8.526;2023-11-21T16:09:42;99096.38;;;6.04;78.55
27685;BME280;46113;50.130;8.526;2023-11-21T16:12:10;99098.13;;;6.04;78.54
27685;BME280;46113;50.130;8.526;2023-11-21T16:14:39;99095.56;;;6.02;78.71
27685;BME280;46113;50.130;8.526;2023-11-21T16:17:12;99102.25;;;5.89;79.81
27685;BME280;46113;50.130;8.526;2023-11-21T16:19:42;99101.81;;;5.99;79.42
27685;BME280;46113;50.130;8.526;2023-11-21T16:22:10;99111.28;;;6.04;79.16
27685;BME280;46113;50.130;8.526;2023-11-21T16:24:38;99111.28;;;6.04;79.40
27685;BME280;46113;50.130;8.526;2023-11-21T16:27:06;99115.53;;;6.06;79.12
27685;BME280;46113;50.130;8.526;2023-11-21T16:29:41;99116.41;;;6.07;79.00
27685;BME280;46113;50.130;8.526;2023-11-21T16:32:09;99123.38;;;6.08;78.78
27685;BME280;46113;50.130;8.526;2023-11-21T16:34:38;99130.16;;;5.91;79.31
27685;BME280;46113;50.130;8.526;2023-11-21T16:37:07;99131.19;;;6.09;79.54
27685;BME280;46113;50.130;8.526;2023-11-21T16:39:39;99134.19;;;6.00;79.31
27685;BME280;46113;50.130;8.526;2023-11-21T16:42:09;99137.53;;;6.04;79.55
27685;BME280;46113;50.130;8.526;2023-11-21T16:44:37;99134.78;;;6.07;79.40
27685;BME280;46113;50.130;8.526;2023-11-21T16:47:05;99139.19;;;6.06;79.42
27685;BME280;46113;50.130;8.526;2023-11-21T16:49:33;99136.59;;;6.05;79.43
27685;BME280;46113;50.130;8.526;2023-11-21T16:52:03;99139.22;;;6.05;79.80
27685;BME280;46113;50.130;8.526;2023-11-21T16:54:31;99147.44;;;5.97;79.70
27685;BME280;46113;50.130;8.526;2023-11-21T16:57:00;99148.91;;;6.04;79.70
27685;BME280;46113;50.130;8.526;2023-11-21T16:59:27;99149.75;;;6.05;79.94
27685;BME280;46113;50.130;8.526;2023-11-21T17:01:55;99152.75;;;5.95;80.34
27685;BME280;46113;50.130;8.526;2023-11-21T17:04:23;99157.09;;;5.96;80.20
27685;BME280;46113;50.130;8.526;2023-11-21T17:06:51;99156.94;;;5.99;79.55
27685;BME280;46113;50.130;8.526;2023-11-21T17:09:19;99167.91;;;6.11;79.26
27685;BME280;46113;50.130;8.526;2023-11-21T17:11:47;99160.13;;;6.08;79.86
27685;BME280;46113;50.130;8.526;2023-11-21T17:14:15;99169.81;;;6.07;79.32
27685;BME280;46113;50.130;8.526;2023-11-21T17:16:42;99165.31;;;6.09;79.56
27685;BME280;46113;50.130;8.526;2023-11-21T17:19:11;99166.56;;;6.01;79.85
27685;BME280;46113;50.130;8.526;2023-11-21T17:21:37;99180.09;;;6.12;79.58
27685;BME280;46113;50.130;8.526;2023-11-21T17:24:04;99180.84;;;6.16;79.51
27685;BME280;46113;50.130;8.526;2023-11-21T17:26:31;99182.75;;;6.12;80.18
27685;BME280;46113;50.130;8.526;2023-11-21T17:28:57;99184.59;;;6.10;80.00
27685;BME280;46113;50.130;8.526;2023-11-21T17:31:24;99187.00;;;6.15;80.30
27685;BME280;46113;50.130;8.526;2023-11-21T17:33:51;99193.13;;;6.15;79.89
27685;BME280;46113;50.130;8.526;2023-11-21T17:36:21;99191.59;;;6.09;79.83
27685;BME280;46113;50.130;8.526;2023-11-21T17:38:47;99186.03;;;6.17;79.57
27685;BME280;46113;50.130;8.526;2023-11-21T17:41:21;99188.66;;;6.17;79.80
27685;BME280;46113;50.130;8.526;2023-11-21T17:43:50;99190.56;;;6.14;79.99
27685;BME280;46113;50.130;8.526;2023-11-21T17:46:23;99194.94;;;6.13;79.27
27685;BME280;46113;50.130;8.526;2023-11-21T17:48:50;99195.19;;;6.07;79.74
27685;BME280;46113;50.130;8.526;2023-11-21T17:51:20;99195.25;;;6.05;79.99
27685;BME280;46113;50.130;8.526;2023-11-21T17:53:49;99200.63;;;6.02;80.49
27685;BME280;46113;50.130;8.526;2023-11-21T17:56:17;99203.03;;;6.08;80.03
27685;BME280;46113;50.130;8.526;2023-11-21T17:58:45;99212.66;;;6.08;79.39
27685;BME280;46113;50.130;8.526;2023-11-21T18:01:12;99217.97;;;6.06;80.37
27685;BME280;46113;50.130;8.526;2023-11-21T18:03:39;99220.78;;;6.02;80.39
27685;BME280;46113;50.130;8.526;2023-11-21T18:06:10;99214.44;;;6.07;80.28
27685;BME280;46113;50.130;8.526;2023-11-21T18:08:37;99227.28;;;5.93;81.06
27685;BME280;46113;50.130;8.526;2023-11-21T18:11:06;99227.13;;;5.96;80.54
27685;BME280;46113;50.130;8.526;2023-11-21T18:13:33;99238.41;;;5.76;80.82
27685;BME280;46113;50.130;8.526;2023-11-21T18:15:59;99240.13;;;5.77;80.19
27685;BME280;46113;50.130;8.526;2023-11-21T18:18:26;99241.78;;;5.79;80.51
27685;BME280;46113;50.130;8.526;2023-11-21T18:20:53;99246.59;;;5.68;79.17
27685;BME280;46113;50.130;8.526;2023-11-21T18:23:20;99268.56;;;5.40;79.49
27685;BME280;46113;50.130;8.526;2023-11-21T18:25:47;99264.84;;;4.96;81.04
27685;BME280;46113;50.130;8.526;2023-11-21T18:28:13;99275.38;;;5.20;80.14
27685;BME280;46113;50.130;8.526;2023-11-21T18:30:40;99284.78;;;4.75;81.44
27685;BME280;46113;50.130;8.526;2023-11-21T18:33:07;99285.38;;;4.56;82.53
27685;BME280;46113;50.130;8.526;2023-11-21T18:35:34;99289.06;;;4.50;82.60
27685;BME280;46113;50.130;8.526;2023-11-21T18:38:01;99292.00;;;3.82;82.43
27685;BME280;46113;50.130;8.526;2023-11-21T18:40:28;99300.84;;;4.37;83.20
27685;BME280;46113;50.130;8.526;2023-11-21T18:42:56;99318.06;;;4.16;82.54
27685;BME280;46113;50.130;8.526;2023-11-21T18:45:22;99325.13;;;3.83;81.48
27685;BME280;46113;50.130;8.526;2023-11-21T18:47:49;99333.88;;;3.82;80.87
27685;BME280;46113;50.130;8.526;2023-11-21T18:50:16;99335.13;;;3.99;79.59
27685;BME280;46113;50.130;8.526;2023-11-21T18:52:44;99349.84;;;3.73;80.19
27685;BME280;46113;50.130;8.526;2023-11-21T18:55:12;99347.66;;;3.57;79.97
27685;BME280;46113;50.130;8.526;2023-11-21T18:57:38;99355.03;;;3.40;80.13
27685;BME280;46113;50.130;8.526;2023-11-21T19:00:07;99362.44;;;3.58;79.24
27685;BME280;46113;50.130;8.526;2023-11-21T19:02:35;99359.09;;;3.52;80.20
27685;BME280;46113;50.130;8.526;2023-11-21T19:05:02;99367.47;;;3.31;80.69
27685;BME280;46113;50.130;8.526;2023-11-21T19:07:31;99378.81;;;3.30;80.33
27685;BME280;46113;50.130;8.526;2023-11-21T19:10:03;99401.81;;;3.17;79.77
27685;BME280;46113;50.130;8.526;2023-11-21T19:12:36;99395.28;;;2.99;80.01
27685;BME280;46113;50.130;8.526;2023-11-21T19:15:07;99412.75;;;2.99;79.55
27685;BME280;46113;50.130;8.526;2023-11-21T19:17:42;99423.56;;;2.83;78.85
27685;BME280;46113;50.130;8.526;2023-11-21T19:20:09;99427.22;;;2.74;79.85
27685;BME280;46113;50.130;8.526;2023-11-21T19:22:37;99432.25;;;2.82;78.35
27685;BME280;46113;50.130;8.526;2023-11-21T19:25:04;99444.06;;;2.61;79.46
27685;BME280;46113;50.130;8.526;2023-11-21T19:27:31;99444.38;;;2.86;78.92
27685;BME280;46113;50.130;8.526;2023-11-21T19:29:58;99452.81;;;2.98;78.15
27685;BME280;46113;50.130;8.526;2023-11-21T19:32:24;99445.66;;;2.68;78.26
27685;BME280;46113;50.130;8.526;2023-11-21T19:34:51;99438.97;;;2.54;78.31
27685;BME280;46113;50.130;8.526;2023-11-21T19:37:18;99451.81;;;2.65;77.31
27685;BME280;46113;50.130;8.526;2023-11-21T19:39:44;99455.97;;;2.74;76.82
27685;BME280;46113;50.130;8.526;2023-11-21T19:42:11;99454.22;;;2.75;77.43
27685;BME280;46113;50.130;8.526;2023-11-21T19:44:37;99459.00;;;2.55;78.20
27685;BME280;46113;50.130;8.526;2023-11-21T19:47:06;99464.13;;;2.98;77.11